Time;durP1;ratioP1;P1;durP2;ratioP2;P2;SDS_P1;SDS_P2;PMS_P1;PMS_P2;Temp;Humidity;BMP_temperature;BMP_pressure;BME280_temperature;BME280_humidity;BME280_pressure;Samples;Min_cycle;Max_cycle;Signal;HPM_P1;HPM_P2
2022/10/29 00:01:33;;;;;;;10.32;2.75;;;13.00;99.90;;;;;;5038707;28;20041;-68
2022/10/29 00:03:58;;;;;;;5.88;2.65;;;13.00;99.90;;;;;;5040160;28;20048;-71
2022/10/29 00:06:24;;;;;;;10.85;2.67;;;13.00;99.90;;;;;;5046994;28;20135;-69
2022/10/29 00:08:50;;;;;;;10.48;2.85;;;12.90;99.90;;;;;;5048270;28;20052;-70
2022/10/29 00:11:18;;;;;;;6.57;2.60;;;12.90;99.90;;;;;;5051110;28;20077;-73
2022/10/29 00:13:45;;;;;;;10.10;3.08;;;12.90;99.90;;;;;;5034086;28;20121;-69
2022/10/29 00:16:11;;;;;;;;;;;12.90;99.90;;;;;;5042100;28;20072;-69
2022/10/29 00:18:37;;;;;;;10.35;3.35;;;12.90;99.90;;;;;;5032604;28;19921;-69
2022/10/29 00:21:06;;;;;;;11.02;2.90;;;12.90;99.90;;;;;;5040743;28;20057;-68
2022/10/29 00:23:32;;;;;;;8.02;2.80;;;12.90;99.90;;;;;;5048026;28;20060;-70
2022/10/29 00:25:58;;;;;;;;;;;12.90;99.90;;;;;;5052113;28;20106;-72
2022/10/29 00:28:25;;;;;;;9.40;2.92;;;12.90;99.90;;;;;;5039419;28;19925;-69
2022/10/29 00:30:50;;;;;;;7.60;2.63;;;12.90;99.90;;;;;;5032864;28;20088;-70
2022/10/29 00:33:17;;;;;;;8.55;2.60;;;12.90;99.90;;;;;;5051070;28;20076;-74
2022/10/29 00:36:04;;;;;;;7.90;2.63;;;12.90;99.90;;;;;;5045309;28;20054;-70
2022/10/29 00:38:33;;;;;;;4.68;2.05;;;12.90;99.90;;;;;;5031202;28;20052;-70
2022/10/29 00:41:00;;;;;;;7.22;2.90;;;12.80;99.90;;;;;;5029907;28;20443;-70
2022/10/29 00:43:26;;;;;;;6.50;2.17;;;12.80;99.90;;;;;;5042204;28;20059;-71
2022/10/29 00:45:55;;;;;;;6.95;2.50;;;12.80;99.90;;;;;;5052527;28;20049;-70
2022/10/29 00:48:23;;;;;;;6.97;2.58;;;12.70;99.90;;;;;;5034835;28;20529;-71
2022/10/29 00:50:51;;;;;;;9.30;2.40;;;12.70;99.90;;;;;;5050101;28;20060;-69
2022/10/29 00:53:22;;;;;;;8.43;2.28;;;12.70;99.90;;;;;;5050592;28;20052;-73
2022/10/29 00:55:48;;;;;;;11.43;2.30;;;12.70;99.90;;;;;;5051148;28;20491;-72
2022/10/29 00:58:14;;;;;;;9.75;2.85;;;12.60;99.90;;;;;;5052171;28;20052;-70
2022/10/29 01:00:41;;;;;;;10.35;2.88;;;12.60;99.90;;;;;;5051515;28;20857;-69
2022/10/29 01:03:07;;;;;;;12.13;3.10;;;12.60;99.90;;;;;;5052018;28;20048;-71
2022/10/29 01:05:34;;;;;;;12.35;4.38;;;12.60;99.90;;;;;;5051260;28;20041;-70
2022/10/29 01:08:00;;;;;;;11.23;3.75;;;12.60;99.90;;;;;;5050954;28;20044;-70
2022/10/29 01:10:50;;;;;;;10.93;3.10;;;12.60;99.90;;;;;;5048188;28;20045;-69
2022/10/29 01:13:41;;;;;;;9.90;2.63;;;12.60;99.90;;;;;;5038239;28;20045;-69
2022/10/29 01:16:06;;;;;;;7.75;3.00;;;12.60;99.90;;;;;;5032281;28;20052;-70
2022/10/29 01:18:42;;;;;;;6.25;2.58;;;12.60;99.90;;;;;;5039935;28;20052;-69
2022/10/29 01:21:20;;;;;;;9.82;3.58;;;12.50;99.90;;;;;;5050922;28;20410;-71
2022/10/29 01:24:40;;;;;;;15.07;4.15;;;12.50;99.90;;;;;;5046970;28;20057;-71
2022/10/29 01:27:50;;;;;;;11.55;5.45;;;12.50;99.90;;;;;;4988772;28;20050;-72
2022/10/29 01:30:47;;;;;;;11.45;4.70;;;12.50;99.90;;;;;;4989567;28;20133;-70
2022/10/29 01:33:27;;;;;;;24.35;4.15;;;12.50;99.90;;;;;;5042063;28;20380;-69
2022/10/29 01:36:06;;;;;;;10.15;2.70;;;12.50;99.90;;;;;;5063547;28;20128;-70
2022/10/29 01:38:35;;;;;;;5.22;2.70;;;12.40;99.90;;;;;;5030148;28;20053;-71
2022/10/29 01:41:03;;;;;;;18.65;2.88;;;12.20;99.90;;;;;;5030635;28;20128;-70
2022/10/29 01:43:46;;;;;;;104.63;8.52;;;12.00;99.90;;;;;;5049952;28;20146;-71
2022/10/29 01:46:38;;;;;;;37.45;4.38;;;11.80;99.90;;;;;;5050576;28;20044;-70
2022/10/29 01:49:09;;;;;;;70.93;6.28;;;11.70;99.90;;;;;;5030655;28;20065;-70
2022/10/29 01:51:37;;;;;;;8.60;2.92;;;11.60;99.90;;;;;;5046543;28;20599;-70
2022/10/29 01:54:08;;;;;;;6.82;2.85;;;11.60;99.90;;;;;;5045723;28;20048;-71
2022/10/29 01:56:33;;;;;;;16.15;4.53;;;11.50;99.90;;;;;;5028497;28;20053;-70
2022/10/29 01:59:03;;;;;;;36.65;4.97;;;11.40;99.90;;;;;;5031486;28;20095;-70
2022/10/29 02:02:02;;;;;;;16.75;3.70;;;11.40;99.90;;;;;;5030738;28;20656;-70
2022/10/29 02:04:37;;;;;;;20.23;3.88;;;11.40;99.90;;;;;;5045455;28;20239;-71
2022/10/29 02:07:19;;;;;;;13.93;3.53;;;11.40;99.90;;;;;;5031082;28;20103;-70
2022/10/29 02:09:50;;;;;;;12.27;2.75;;;11.40;99.90;;;;;;5028842;28;20044;-72
2022/10/29 02:12:21;;;;;;;9.80;2.85;;;11.40;99.90;;;;;;5032579;28;20110;-69
2022/10/29 02:15:12;;;;;;;7.72;2.92;;;11.40;99.90;;;;;;5029346;28;20790;-72
2022/10/29 02:17:38;;;;;;;14.65;3.45;;;11.40;99.90;;;;;;5049585;28;20057;-70
2022/10/29 02:20:06;;;;;;;15.75;4.32;;;11.40;99.90;;;;;;5050299;28;20094;-71
2022/10/29 02:22:32;;;;;;;12.63;3.78;;;11.50;99.90;;;;;;5048795;28;20633;-70
2022/10/29 02:24:58;;;;;;;20.90;4.45;;;11.60;99.90;;;;;;5044918;28;20047;-70
2022/10/29 02:27:23;;;;;;;10.07;2.80;;;11.60;99.90;;;;;;5049315;28;20117;-74
2022/10/29 02:29:49;;;;;;;5.80;2.20;;;11.60;99.90;;;;;;5032378;28;20441;-70
2022/10/29 02:32:15;;;;;;;5.65;2.10;;;11.60;99.90;;;;;;5050587;28;20049;-69
2022/10/29 02:34:40;;;;;;;4.80;1.50;;;11.50;99.90;;;;;;5031840;28;20405;-70
2022/10/29 02:37:06;;;;;;;8.60;2.47;;;11.40;99.90;;;;;;5030162;28;20042;-72
2022/10/29 02:39:31;;;;;;;21.55;3.13;;;11.30;99.90;;;;;;5037254;28;20037;-74
2022/10/29 02:41:57;;;;;;;44.67;3.92;;;11.20;99.90;;;;;;5049748;28;20083;-70
2022/10/29 02:44:23;;;;;;;33.53;3.53;;;11.20;99.90;;;;;;5050339;28;20051;-73
2022/10/29 02:46:49;;;;;;;33.88;4.85;;;11.20;99.90;;;;;;5035045;28;20045;-69
2022/10/29 02:49:15;;;;;;;53.15;6.18;;;11.30;99.90;;;;;;5030870;28;20060;-71
2022/10/29 02:51:40;;;;;;;40.50;5.38;;;11.30;99.90;;;;;;5049417;28;20554;-71
2022/10/29 02:54:06;;;;;;;32.20;5.20;;;11.30;99.90;;;;;;5049424;28;20057;-70
2022/10/29 02:56:31;;;;;;;22.15;5.05;;;11.40;99.90;;;;;;5048324;28;20045;-69
2022/10/29 02:58:57;;;;;;;77.88;6.10;;;11.50;99.90;;;;;;5048131;28;20052;-71
2022/10/29 03:01:23;;;;;;;35.92;4.78;;;11.50;99.90;;;;;;5049791;28;20041;-70
2022/10/29 03:03:49;;;;;;;135.77;7.15;;;11.50;99.90;;;;;;5047552;28;20052;-70
2022/10/29 03:06:17;;;;;;;64.70;4.60;;;11.50;99.90;;;;;;5028808;28;20045;-70
2022/10/29 03:08:44;;;;;;;32.15;3.05;;;11.50;99.90;;;;;;5031306;28;20579;-70
2022/10/29 03:11:10;;;;;;;21.50;2.40;;;11.40;99.90;;;;;;5041199;28;20048;-69
2022/10/29 03:13:35;;;;;;;5.00;2.08;;;11.40;99.90;;;;;;5048774;28;20135;-70
2022/10/29 03:16:01;;;;;;;11.10;2.67;;;11.30;99.90;;;;;;5048560;28;20131;-70
2022/10/29 03:18:27;;;;;;;22.20;4.80;;;11.20;99.90;;;;;;5049510;28;20099;-74
2022/10/29 03:20:53;;;;;;;31.00;2.80;;;11.20;99.90;;;;;;5047050;28;20057;-72
2022/10/29 03:23:19;;;;;;;49.88;2.88;;;11.20;99.90;;;;;;5044881;28;20132;-71
2022/10/29 03:25:51;;;;;;;24.48;2.25;;;11.10;99.90;;;;;;5030411;28;20124;-70
2022/10/29 03:28:17;;;;;;;12.13;2.25;;;11.10;99.90;;;;;;5029811;28;20056;-70
2022/10/29 03:30:42;;;;;;;;;;;11.00;99.90;;;;;;5028373;28;20042;-71
2022/10/29 03:33:08;;;;;;;53.30;2.70;;;11.00;99.90;;;;;;5029741;28;19975;-72
2022/10/29 03:35:34;;;;;;;8.05;2.70;;;11.00;99.90;;;;;;5027653;28;20052;-69
2022/10/29 03:37:59;;;;;;;17.25;3.28;;;10.90;99.90;;;;;;5028628;28;20443;-70
2022/10/29 03:40:25;;;;;;;21.88;4.20;;;10.90;99.90;;;;;;5044434;28;20483;-70
2022/10/29 03:42:50;;;;;;;31.45;3.45;;;11.00;99.90;;;;;;5047597;28;20087;-70
2022/10/29 03:45:16;;;;;;;8.43;2.42;;;11.00;99.90;;;;;;5047607;28;20048;-70
2022/10/29 03:47:42;;;;;;;8.52;3.38;;;11.00;99.90;;;;;;5039580;28;20056;-70
2022/10/29 03:50:08;;;;;;;12.10;2.67;;;11.00;99.90;;;;;;5047991;28;20033;-73
2022/10/29 03:52:34;;;;;;;14.00;2.30;;;11.00;99.90;;;;;;5028087;28;20052;-74
2022/10/29 03:54:59;;;;;;;68.88;5.70;;;11.10;99.90;;;;;;5027364;28;20041;-71
2022/10/29 03:57:25;;;;;;;51.45;6.18;;;11.10;99.90;;;;;;5029488;28;20183;-69
2022/10/29 03:59:50;;;;;;;31.38;4.75;;;11.10;99.90;;;;;;5029018;28;20126;-71
2022/10/29 04:02:16;;;;;;;19.27;4.15;;;11.20;99.90;;;;;;5061751;28;20056;-70
2022/10/29 04:04:42;;;;;;;17.08;4.35;;;11.30;99.90;;;;;;5076665;28;20064;-70
2022/10/29 04:07:07;;;;;;;16.40;5.35;;;11.30;99.90;;;;;;5048878;28;20053;-72
2022/10/29 04:09:33;;;;;;;10.15;4.32;;;11.40;99.90;;;;;;5043239;28;20037;-73
2022/10/29 04:11:59;;;;;;;11.50;4.63;;;11.40;99.90;;;;;;5035039;28;20048;-70
2022/10/29 04:14:25;;;;;;;12.15;4.82;;;11.50;99.90;;;;;;5081809;28;20084;-72
2022/10/29 04:16:51;;;;;;;18.95;5.68;;;11.60;99.90;;;;;;5034443;28;20270;-71
2022/10/29 04:19:17;;;;;;;15.27;5.78;;;11.70;99.90;;;;;;5060994;28;20042;-70
2022/10/29 04:21:42;;;;;;;16.10;6.13;;;11.70;99.90;;;;;;5027816;28;20097;-71
2022/10/29 04:24:08;;;;;;;12.75;5.40;;;11.80;99.90;;;;;;5028472;28;20426;-72
2022/10/29 04:26:34;;;;;;;15.50;5.90;;;11.90;99.90;;;;;;5049746;28;20132;-74
2022/10/29 04:28:59;;;;;;;16.55;5.38;;;11.90;99.90;;;;;;5035332;28;20076;-70
2022/10/29 04:31:25;;;;;;;11.98;4.60;;;11.90;99.90;;;;;;5052926;28;20098;-70
2022/10/29 04:33:54;;;;;;;15.98;5.50;;;12.00;99.90;;;;;;5052031;28;20492;-70
2022/10/29 04:36:20;;;;;;;9.98;5.15;;;12.00;99.90;;;;;;5052962;28;20144;-70
2022/10/29 04:38:45;;;;;;;14.48;5.93;;;12.10;99.90;;;;;;5050153;28;20562;-71
2022/10/29 04:41:11;;;;;;;12.57;5.28;;;12.10;99.90;;;;;;5042605;28;20037;-73
2022/10/29 04:43:37;;;;;;;13.75;4.78;;;12.10;99.90;;;;;;5052268;28;20478;-70
2022/10/29 04:46:02;;;;;;;10.57;5.30;;;12.10;99.90;;;;;;5051489;28;20425;-71
2022/10/29 04:48:28;;;;;;;12.15;4.97;;;12.10;99.90;;;;;;5051216;28;20138;-71
2022/10/29 04:50:54;;;;;;;15.02;5.25;;;12.10;99.90;;;;;;5050646;28;20056;-70
2022/10/29 04:53:20;;;;;;;14.00;5.22;;;12.10;99.90;;;;;;5051711;28;20048;-70
2022/10/29 04:55:46;;;;;;;11.93;5.65;;;12.10;99.90;;;;;;5050861;28;20440;-71
2022/10/29 04:58:14;;;;;;;11.57;5.10;;;12.20;99.90;;;;;;5050439;28;20041;-71
2022/10/29 05:00:41;;;;;;;17.27;5.60;;;12.20;99.90;;;;;;5044103;28;20052;-71
2022/10/29 05:03:07;;;;;;;12.90;6.30;;;12.20;99.90;;;;;;5038477;28;20060;-71
2022/10/29 05:05:34;;;;;;;;;;;12.20;99.90;;;;;;5064061;28;20397;-74
2022/10/29 05:08:01;;;;;;;13.90;5.45;;;12.20;99.90;;;;;;5049963;28;19920;-70
2022/10/29 05:10:28;;;;;;;15.63;5.47;;;12.20;99.90;;;;;;5050684;28;20098;-70
2022/10/29 05:13:03;;;;;;;15.70;6.78;;;12.20;99.90;;;;;;5051297;28;20512;-70
2022/10/29 05:15:29;;;;;;;16.92;5.60;;;12.20;99.90;;;;;;5052125;28;20091;-72
2022/10/29 05:17:55;;;;;;;17.83;6.05;;;12.20;99.90;;;;;;5050894;28;20041;-72
2022/10/29 05:20:22;;;;;;;20.77;6.03;;;12.20;99.90;;;;;;5051510;28;20049;-70
2022/10/29 05:22:48;;;;;;;18.20;5.63;;;12.20;99.90;;;;;;5039347;28;20061;-69
2022/10/29 05:25:14;;;;;;;52.33;6.63;;;12.20;99.90;;;;;;5030007;28;20042;-70
2022/10/29 05:27:40;;;;;;;14.30;5.55;;;12.20;99.90;;;;;;5033364;28;20045;-71
2022/10/29 05:30:06;;;;;;;27.27;5.78;;;12.20;99.90;;;;;;5031868;28;20060;-69
2022/10/29 05:32:32;;;;;;;29.00;7.00;;;12.20;99.90;;;;;;5031563;28;20050;-70
2022/10/29 05:34:58;;;;;;;29.80;6.80;;;12.20;99.90;;;;;;5044142;28;20845;-69
2022/10/29 05:37:24;;;;;;;40.13;7.50;;;12.20;99.90;;;;;;5050048;28;20160;-70
2022/10/29 05:39:50;;;;;;;;;;;12.20;99.90;;;;;;5049771;28;20053;-70
2022/10/29 05:42:15;;;;;;;63.22;9.35;;;12.30;99.90;;;;;;5050152;28;20297;-70
2022/10/29 05:44:41;;;;;;;45.33;6.95;;;12.30;99.90;;;;;;5031709;28;20048;-70
2022/10/29 05:47:07;;;;;;;43.80;7.88;;;12.30;99.90;;;;;;5050968;28;20052;-70
2022/10/29 05:49:32;;;;;;;38.78;8.15;;;12.30;99.90;;;;;;5043919;28;20041;-72
2022/10/29 05:51:58;;;;;;;56.53;7.32;;;12.30;99.90;;;;;;5030707;28;20046;-70
2022/10/29 05:54:23;;;;;;;36.30;8.00;;;12.30;99.90;;;;;;5070020;28;20051;-72
2022/10/29 05:56:49;;;;;;;32.30;7.70;;;12.30;99.90;;;;;;5049584;28;20092;-70
2022/10/29 05:59:15;;;;;;;44.00;7.60;;;12.30;99.90;;;;;;5050781;28;20049;-70
2022/10/29 06:01:40;;;;;;;30.52;7.40;;;12.30;99.90;;;;;;5049484;28;20053;-70
2022/10/29 06:04:06;;;;;;;24.00;7.20;;;12.30;99.90;;;;;;5050840;28;20053;-70
2022/10/29 06:06:32;;;;;;;53.45;7.55;;;12.30;99.90;;;;;;5046934;28;20120;-68
2022/10/29 06:08:58;;;;;;;43.30;7.53;;;12.30;99.90;;;;;;5031067;28;20052;-72
2022/10/29 06:11:24;;;;;;;15.52;6.80;;;12.30;99.90;;;;;;5029785;28;20399;-72
2022/10/29 06:13:53;;;;;;;27.52;7.18;;;12.30;99.90;;;;;;5029301;28;20128;-71
2022/10/29 06:16:19;;;;;;;22.17;6.90;;;12.30;99.90;;;;;;5036162;28;20056;-71
2022/10/29 06:18:45;;;;;;;28.45;7.07;;;12.30;99.90;;;;;;5050090;28;20044;-77
2022/10/29 06:21:10;;;;;;;21.55;7.20;;;12.30;99.90;;;;;;5048192;28;20057;-73
2022/10/29 06:23:36;;;;;;;32.03;8.48;;;12.30;99.90;;;;;;5062108;28;20057;-73
2022/10/29 06:26:02;;;;;;;25.95;7.65;;;12.40;99.90;;;;;;5068843;28;20433;-70
2022/10/29 06:28:28;;;;;;;16.45;7.15;;;12.40;99.90;;;;;;5046981;28;20045;-72
2022/10/29 06:30:54;;;;;;;17.50;7.35;;;12.40;99.90;;;;;;5041336;28;20148;-72
2022/10/29 06:33:20;;;;;;;15.45;7.15;;;12.30;99.90;;;;;;5029967;28;20081;-68
2022/10/29 06:35:46;;;;;;;19.13;8.70;;;12.40;99.90;;;;;;5032785;28;20508;-71
2022/10/29 06:38:12;;;;;;;19.60;7.40;;;12.40;99.90;;;;;;5049667;28;20479;-70
2022/10/29 06:40:39;;;;;;;15.70;6.95;;;12.50;99.90;;;;;;5048622;28;20493;-74
2022/10/29 06:43:06;;;;;;;16.63;7.07;;;12.50;99.90;;;;;;5050360;28;20049;-69
2022/10/29 06:45:33;;;;;;;17.83;6.57;;;12.50;99.90;;;;;;5050950;28;20105;-69
2022/10/29 06:47:59;;;;;;;18.90;7.78;;;12.50;99.90;;;;;;5048609;28;20608;-73
2022/10/29 06:50:24;;;;;;;;;;;12.50;99.90;;;;;;5033547;28;20056;-68
2022/10/29 06:53:11;;;;;;;19.92;7.50;;;12.50;99.90;;;;;;5029311;28;19925;-70
2022/10/29 06:55:37;;;;;;;23.02;7.30;;;12.60;99.90;;;;;;5038698;28;20053;-69
2022/10/29 06:58:06;;;;;;;20.45;7.20;;;12.60;99.90;;;;;;5030192;28;20115;-69
2022/10/29 07:00:33;;;;;;;18.85;8.02;;;12.60;99.90;;;;;;5042441;28;20087;-70
2022/10/29 07:02:59;;;;;;;20.92;7.82;;;12.60;99.90;;;;;;5049488;28;20052;-69
2022/10/29 07:05:25;;;;;;;22.45;7.63;;;12.70;99.90;;;;;;5039943;28;20126;-66
2022/10/29 07:07:57;;;;;;;;;;;12.70;99.90;;;;;;5029472;28;20045;-66
2022/10/29 07:10:24;;;;;;;20.40;7.45;;;12.70;99.90;;;;;;5029532;28;19968;-67
2022/10/29 07:12:50;;;;;;;18.27;6.75;;;12.70;99.90;;;;;;5029586;28;20495;-67
2022/10/29 07:15:16;;;;;;;17.70;6.65;;;12.70;99.90;;;;;;5030391;28;20049;-66
2022/10/29 07:17:41;;;;;;;17.50;8.07;;;12.80;99.90;;;;;;5030082;28;20045;-75
2022/10/29 07:20:08;;;;;;;17.23;7.07;;;12.80;99.90;;;;;;5041644;28;20080;-72
2022/10/29 07:22:34;;;;;;;16.83;6.90;;;12.80;99.90;;;;;;5048271;28;20120;-70
2022/10/29 07:25:00;;;;;;;;;;;12.80;99.90;;;;;;5047778;28;20057;-73
2022/10/29 07:27:27;;;;;;;16.17;7.10;;;12.80;99.90;;;;;;5049099;28;19975;-73
2022/10/29 07:29:52;;;;;;;18.02;6.28;;;12.70;99.90;;;;;;5045861;28;20033;-71
2022/10/29 07:32:18;;;;;;;17.02;7.18;;;12.70;99.90;;;;;;5048241;28;20040;-72
2022/10/29 07:34:44;;;;;;;13.57;6.53;;;12.70;99.90;;;;;;5043872;28;20044;-77
2022/10/29 07:37:09;;;;;;;21.63;8.02;;;12.70;99.90;;;;;;5042915;28;20087;-73
2022/10/29 07:39:35;;;;;;;20.17;7.43;;;12.70;99.90;;;;;;5041861;28;20171;-76
2022/10/29 07:42:00;;;;;;;17.17;7.70;;;12.70;99.90;;;;;;5048193;28;20044;-71
2022/10/29 07:44:26;;;;;;;21.10;7.18;;;12.80;99.90;;;;;;5049078;28;20060;-71
2022/10/29 07:46:52;;;;;;;15.07;6.82;;;12.80;99.90;;;;;;5048080;28;20186;-71
2022/10/29 07:49:17;;;;;;;19.48;6.90;;;12.80;99.90;;;;;;5048912;28;20084;-71
2022/10/29 07:51:43;;;;;;;19.38;7.35;;;12.90;99.90;;;;;;5047961;28;20040;-77
2022/10/29 07:54:09;;;;;;;14.73;7.75;;;12.90;99.90;;;;;;5047879;28;20033;-73
2022/10/29 07:56:34;;;;;;;20.15;8.48;;;12.90;99.90;;;;;;5048134;28;20479;-73
2022/10/29 07:59:00;;;;;;;17.38;7.10;;;13.00;99.90;;;;;;5047634;28;20045;-73
2022/10/29 08:01:26;;;;;;;21.38;7.95;;;13.10;99.90;;;;;;5050365;28;20124;-72
2022/10/29 08:03:51;;;;;;;21.95;8.73;;;13.10;99.90;;;;;;5085161;28;20049;-71
2022/10/29 08:06:17;;;;;;;22.73;9.40;;;13.20;99.90;;;;;;5053865;28;20067;-72
2022/10/29 08:08:43;;;;;;;19.83;8.73;;;13.30;99.90;;;;;;5052481;28;20045;-79
2022/10/29 08:11:08;;;;;;;18.63;8.00;;;13.30;99.90;;;;;;5034723;28;20653;-71
2022/10/29 08:13:34;;;;;;;21.33;9.07;;;13.40;99.90;;;;;;5051904;28;20051;-71
2022/10/29 08:16:00;;;;;;;26.20;9.93;;;13.50;99.90;;;;;;5045433;28;20487;-71
2022/10/29 08:18:26;;;;;;;19.40;8.88;;;13.50;99.90;;;;;;5033638;28;20475;-74
2022/10/29 08:20:52;;;;;;;21.85;9.57;;;13.60;99.90;;;;;;5049396;28;20057;-72
2022/10/29 08:23:17;;;;;;;24.05;9.27;;;13.70;99.90;;;;;;5052607;28;20048;-72
2022/10/29 08:25:43;;;;;;;19.88;9.05;;;13.70;99.90;;;;;;5034434;28;20049;-72
2022/10/29 08:28:12;;;;;;;22.70;9.55;;;13.70;99.90;;;;;;5033922;28;20903;-73
2022/10/29 08:30:38;;;;;;;22.17;8.88;;;13.80;99.90;;;;;;5032585;28;20057;-75
2022/10/29 08:33:04;;;;;;;20.70;10.82;;;13.80;99.90;;;;;;5045693;28;20495;-72
2022/10/29 08:35:30;;;;;;;;;;;13.90;99.90;;;;;;5034285;28;20056;-71
2022/10/29 08:37:56;;;;;;;26.20;9.05;;;13.90;99.90;;;;;;5031155;28;19925;-72
2022/10/29 08:40:47;;;;;;;18.73;8.52;;;14.00;99.90;;;;;;5030998;28;20049;-72
2022/10/29 08:43:32;;;;;;;24.08;8.68;;;14.00;99.90;;;;;;5031604;28;20055;-72
2022/10/29 08:45:58;;;;;;;19.45;8.60;;;14.10;99.90;;;;;;5033378;28;20053;-74
2022/10/29 08:48:33;;;;;;;18.10;8.75;;;14.10;99.90;;;;;;5052925;28;20059;-71
2022/10/29 08:51:22;;;;;;;17.67;7.95;;;14.20;99.90;;;;;;5047146;28;20067;-75
2022/10/29 08:53:50;;;;;;;21.70;9.20;;;14.30;99.90;;;;;;5047771;28;21001;-77
2022/10/29 08:56:34;;;;;;;21.55;9.45;;;14.40;99.90;;;;;;5063699;28;20061;-73
2022/10/29 08:59:02;;;;;;;22.20;8.73;;;14.50;99.90;;;;;;5048343;28;20053;-74
2022/10/29 09:01:29;;;;;;;19.20;8.20;;;14.60;99.90;;;;;;5052691;28;20123;-75
2022/10/29 09:03:55;;;;;;;22.48;8.60;;;14.60;99.90;;;;;;5051822;28;20137;-75
2022/10/29 09:06:26;;;;;;;23.67;10.00;;;14.70;99.90;;;;;;5052873;28;20128;-74
2022/10/29 09:09:04;;;;;;;22.35;10.18;;;14.80;99.90;;;;;;5050986;28;20060;-80
2022/10/29 09:12:03;;;;;;;24.58;8.75;;;14.90;99.90;;;;;;5069048;28;20081;-75
2022/10/29 09:14:39;;;;;;;27.30;9.07;;;14.90;99.90;;;;;;5045904;28;20041;-77
2022/10/29 09:17:34;;;;;;;24.48;9.23;;;15.00;99.90;;;;;;5041824;28;20077;-79
2022/10/29 09:20:07;;;;;;;21.33;8.93;;;15.10;99.90;;;;;;5042406;28;20455;-77
2022/10/29 09:22:35;;;;;;;19.83;9.13;;;15.10;99.90;;;;;;5044562;28;20529;-74
2022/10/29 09:25:04;;;;;;;22.35;8.60;;;15.20;99.90;;;;;;5053051;28;20048;-72
2022/10/29 09:27:57;;;;;;;23.00;9.45;;;15.30;99.90;;;;;;5053035;28;20053;-73
2022/10/29 09:30:27;;;;;;;18.92;8.30;;;15.40;99.90;;;;;;5053834;28;20041;-72
2022/10/29 09:33:06;;;;;;;21.80;9.57;;;15.50;99.90;;;;;;5053529;28;20040;-73
2022/10/29 09:35:56;;;;;;;21.85;8.95;;;15.60;99.90;;;;;;5034289;28;20056;-72
2022/10/29 09:38:29;;;;;;;19.13;8.18;;;15.70;99.90;;;;;;5032600;28;20056;-72
2022/10/29 09:41:00;;;;;;;22.98;8.90;;;15.80;99.90;;;;;;5033078;28;20042;-79
2022/10/29 09:43:44;;;;;;;21.15;8.05;;;16.00;99.90;;;;;;5032663;28;20503;-72
2022/10/29 09:46:20;;;;;;;18.17;8.40;;;16.10;99.90;;;;;;5033280;28;20089;-72
2022/10/29 09:49:27;;;;;;;20.05;7.80;;;16.20;99.90;;;;;;5033523;28;20045;-72
2022/10/29 09:52:03;;;;;;;22.63;8.77;;;16.30;99.90;;;;;;5011572;28;20103;-77
2022/10/29 09:54:30;;;;;;;21.52;7.63;;;16.50;99.90;;;;;;4993690;28;20875;-74
2022/10/29 09:56:58;;;;;;;17.25;7.00;;;16.60;99.90;;;;;;5032371;28;20092;-79
2022/10/29 09:59:39;;;;;;;16.00;7.40;;;16.70;99.90;;;;;;5049629;28;20045;-73
2022/10/29 10:02:26;;;;;;;20.42;7.35;;;16.80;99.90;;;;;;5052657;28;20060;-75
2022/10/29 10:04:56;;;;;;;21.45;7.50;;;16.90;99.90;;;;;;5045974;28;20069;-71
2022/10/29 10:07:22;;;;;;;19.98;7.75;;;17.00;99.90;;;;;;5048904;28;20044;-74
2022/10/29 10:09:58;;;;;;;;;;;17.10;99.90;;;;;;5052613;28;20060;-74
2022/10/29 10:12:35;;;;;;;16.23;7.28;;;17.10;99.90;;;;;;5051715;28;19932;-79
2022/10/29 10:15:29;;;;;;;15.73;7.75;;;17.20;99.90;;;;;;5051799;28;20406;-72
2022/10/29 10:18:15;;;;;;;18.17;7.63;;;17.20;99.90;;;;;;5042153;28;20049;-81
2022/10/29 10:20:44;;;;;;;20.02;7.25;;;17.30;99.90;;;;;;5050771;28;20049;-72
2022/10/29 10:23:31;;;;;;;19.50;6.97;;;17.30;99.90;;;;;;5050100;28;20071;-73
2022/10/29 10:25:58;;;;;;;20.23;7.60;;;17.30;99.90;;;;;;5042399;28;20056;-78
2022/10/29 10:28:29;;;;;;;22.48;7.43;;;17.40;99.90;;;;;;5035452;28;20049;-72
2022/10/29 10:31:15;;;;;;;23.02;7.32;;;17.40;99.90;;;;;;5048972;28;20037;-77
2022/10/29 10:33:54;;;;;;;20.15;8.20;;;17.50;99.90;;;;;;5048124;28;20041;-71
2022/10/29 10:36:26;;;;;;;18.05;7.60;;;17.70;99.90;;;;;;5050175;28;20084;-72
2022/10/29 10:38:54;;;;;;;33.25;8.10;;;17.80;99.90;;;;;;5047607;28;20052;-74
2022/10/29 10:41:29;;;;;;;18.13;6.97;;;18.00;99.90;;;;;;5031813;28;20532;-70
2022/10/29 10:44:00;;;;;;;21.98;7.72;;;18.10;99.90;;;;;;5048988;28;20102;-69
2022/10/29 10:46:38;;;;;;;18.90;7.50;;;18.20;99.90;;;;;;5051025;28;20049;-74
2022/10/29 10:49:16;;;;;;;14.63;7.40;;;18.20;99.90;;;;;;5048417;28;20121;-70
2022/10/29 10:51:47;;;;;;;22.83;7.72;;;18.20;99.90;;;;;;5048028;28;20134;-72
2022/10/29 10:54:24;;;;;;;19.30;7.28;;;18.40;99.90;;;;;;5044853;28;20045;-72
2022/10/29 10:57:01;;;;;;;17.38;7.80;;;18.60;99.90;;;;;;5045628;28;20101;-69
2022/10/29 10:59:45;;;;;;;16.77;6.70;;;18.90;99.90;;;;;;5049579;28;20118;-70
2022/10/29 11:02:47;;;;;;;21.60;7.72;;;19.20;99.90;;;;;;5068063;28;20041;-70
2022/10/29 11:05:17;;;;;;;14.35;6.47;;;19.40;99.90;;;;;;5024983;28;20064;-73
2022/10/29 11:08:09;;;;;;;21.70;7.90;;;19.50;99.90;;;;;;5049880;28;20037;-70
2022/10/29 11:10:57;;;;;;;19.30;7.15;;;19.50;99.90;;;;;;5046629;28;20144;-70
2022/10/29 11:13:27;;;;;;;17.50;7.43;;;19.40;99.90;;;;;;5049564;28;20044;-72
2022/10/29 11:16:14;;;;;;;18.50;7.18;;;19.30;99.90;;;;;;5050417;28;20045;-70
2022/10/29 11:19:04;;;;;;;17.77;7.18;;;19.20;99.90;;;;;;5050955;28;20136;-69
2022/10/29 11:21:54;;;;;;;15.20;6.72;;;19.20;99.90;;;;;;5041017;28;20052;-70
2022/10/29 11:24:38;;;;;;;21.92;8.60;;;19.10;99.90;;;;;;5029805;28;20060;-73
2022/10/29 11:27:21;;;;;;;17.25;6.95;;;19.10;99.90;;;;;;5030263;28;20124;-76
2022/10/29 11:29:56;;;;;;;22.50;7.43;;;19.10;99.90;;;;;;5046997;28;20368;-69
2022/10/29 11:32:31;;;;;;;25.55;7.57;;;19.10;99.90;;;;;;5046742;28;20123;-70
2022/10/29 11:35:10;;;;;;;16.75;7.40;;;19.10;99.90;;;;;;5048997;28;20045;-69
2022/10/29 11:37:55;;;;;;;17.83;7.40;;;19.10;99.90;;;;;;5049686;28;20049;-71
2022/10/29 11:40:32;;;;;;;21.35;8.75;;;19.10;99.90;;;;;;5049238;28;20056;-69
2022/10/29 11:43:00;;;;;;;24.52;9.52;;;19.10;99.90;;;;;;5050107;28;20509;-69
2022/10/29 11:45:54;;;;;;;23.77;8.38;;;19.00;99.90;;;;;;5049737;28;20065;-72
2022/10/29 11:48:23;;;;;;;18.83;8.30;;;19.00;99.90;;;;;;5046216;28;20045;-69
2022/10/29 11:50:57;;;;;;;27.58;9.27;;;19.00;99.90;;;;;;5049434;28;20557;-69
2022/10/29 11:53:53;;;;;;;22.50;9.25;;;19.00;99.90;;;;;;5044307;28;20041;-73
2022/10/29 11:56:40;;;;;;;19.35;8.02;;;19.10;99.90;;;;;;5028925;28;20183;-71
2022/10/29 11:59:18;;;;;;;22.17;8.18;;;19.20;99.90;;;;;;5030120;28;20187;-78
2022/10/29 12:02:12;;;;;;;20.92;8.52;;;19.40;99.90;;;;;;5031261;28;20045;-72
2022/10/29 12:04:59;;;;;;;21.75;8.40;;;19.90;99.90;;;;;;5029367;28;20056;-69
2022/10/29 12:07:54;;;;;;;25.30;8.48;;;20.90;99.90;;;;;;5035600;28;20056;-71
2022/10/29 12:10:38;;;;;;;27.42;9.55;;;21.10;99.90;;;;;;5041521;28;20123;-72
2022/10/29 12:13:30;;;;;;;21.95;8.15;;;21.00;99.90;;;;;;5050231;28;20049;-76
2022/10/29 12:16:14;;;;;;;21.25;7.53;;;20.90;99.90;;;;;;5029657;28;20041;-69
2022/10/29 12:18:58;;;;;;;22.40;7.40;;;21.10;99.90;;;;;;5027693;28;20045;-69
2022/10/29 12:21:45;;;;;;;23.27;7.82;;;21.50;99.90;;;;;;5028402;28;20140;-69
2022/10/29 12:24:35;;;;;;;19.20;7.75;;;21.80;99.90;;;;;;5028291;28;20406;-70
2022/10/29 12:27:20;;;;;;;29.42;8.60;;;21.90;99.90;;;;;;5029526;28;20049;-69
2022/10/29 12:30:00;;;;;;;20.20;7.75;;;22.00;99.90;;;;;;5030139;28;20056;-71
2022/10/29 12:32:47;;;;;;;29.95;7.82;;;22.50;99.90;;;;;;5029315;28;20045;-73
2022/10/29 12:35:27;;;;;;;21.13;7.28;;;22.90;99.90;;;;;;5011581;28;20056;-69
2022/10/29 12:38:02;;;;;;;23.05;8.18;;;22.60;99.90;;;;;;5028774;28;20053;-70
2022/10/29 12:40:32;;;;;;;19.70;6.93;;;22.00;99.90;;;;;;5027813;28;20076;-70
2022/10/29 12:43:06;;;;;;;17.70;7.47;;;21.50;99.90;;;;;;5029506;28;20045;-70
2022/10/29 12:45:32;;;;;;;17.30;7.03;;;21.10;99.90;;;;;;5029413;28;20056;-72
2022/10/29 12:48:12;;;;;;;20.77;7.10;;;20.80;99.90;;;;;;5031073;28;20127;-72
2022/10/29 12:50:54;;;;;;;21.35;7.82;;;20.60;99.90;;;;;;5048210;28;20502;-70
2022/10/29 12:53:57;;;;;;;17.77;7.20;;;20.40;99.90;;;;;;5051399;28;20486;-70
2022/10/29 12:56:23;;;;;;;26.67;8.10;;;20.20;99.90;;;;;;5050521;28;20398;-72
2022/10/29 12:58:55;;;;;;;21.60;8.45;;;20.10;99.90;;;;;;5051893;28;20197;-71
2022/10/29 13:01:27;;;;;;;25.30;8.50;;;20.10;99.90;;;;;;5052421;28;20049;-70
2022/10/29 13:03:59;;;;;;;19.65;7.85;;;20.40;99.90;;;;;;5045741;28;20056;-70